createdAt,value
2022-08-05T00:00:11.677Z,0
2022-08-05T00:01:48.663Z,0
2022-08-05T00:02:23.244Z,0
2022-08-05T00:03:15.572Z,0
2022-08-05T00:04:18.962Z,0
2022-08-05T00:06:29.434Z,0
2022-08-05T00:06:57.450Z,0
2022-08-05T00:08:47.650Z,0
2022-08-05T00:09:12.993Z,0
2022-08-05T00:10:06.090Z,0
2022-08-05T00:11:07.592Z,0
2022-08-05T00:12:23.932Z,0
2022-08-05T00:13:31.324Z,0
2022-08-05T00:14:40.273Z,0
2022-08-05T00:16:13.896Z,0
2022-08-05T00:17:03.475Z,0
2022-08-05T00:17:47.142Z,0
2022-08-05T00:18:40.221Z,0
2022-08-05T00:20:12.493Z,0
2022-08-05T00:20:40.201Z,0
2022-08-05T00:21:48.202Z,0
2022-08-05T00:22:38.405Z,0
2022-08-05T00:24:36.589Z,0
2022-08-05T00:25:50.732Z,0
2022-08-05T00:26:35.924Z,0
2022-08-05T00:27:56.208Z,0
2022-08-05T00:28:45.851Z,0
2022-08-05T00:29:48.617Z,0
2022-08-05T00:30:46.511Z,0
2022-08-05T00:32:30.996Z,0
2022-08-05T00:32:52.506Z,0
2022-08-05T00:35:20.272Z,0
2022-08-05T00:37:09.569Z,0
2022-08-05T00:38:20.388Z,0
2022-08-05T00:39:18.949Z,0
2022-08-05T00:40:26.504Z,0
2022-08-05T00:41:17.133Z,0
2022-08-05T00:42:32.010Z,0
2022-08-05T00:43:12.754Z,0
2022-08-05T00:44:10.827Z,0
2022-08-05T00:45:13.997Z,0
2022-08-05T00:46:11.401Z,0
2022-08-05T00:47:31.806Z,0
2022-08-05T00:49:03.003Z,0
2022-08-05T00:50:02.993Z,0
2022-08-05T00:50:49.175Z,0
2022-08-05T00:52:08.623Z,0
2022-08-05T00:52:50.919Z,0
2022-08-05T00:54:17.660Z,0
2022-08-05T00:54:48.580Z,0
2022-08-05T00:55:59.353Z,0
2022-08-05T00:57:01.845Z,0
2022-08-05T00:58:11.074Z,0
2022-08-05T00:59:02.221Z,0
2022-08-05T01:00:01.658Z,0
2022-08-05T01:01:03.041Z,0
2022-08-05T01:02:06.393Z,0
2022-08-05T01:03:01.422Z,0
2022-08-05T01:04:13.992Z,0
2022-08-05T01:05:10.521Z,0
2022-08-05T01:06:05.774Z,0
2022-08-05T01:07:13.657Z,0
2022-08-05T01:08:58.662Z,0
2022-08-05T01:09:55.420Z,0
2022-08-05T01:10:58.128Z,0
2022-08-05T01:11:54.549Z,0
2022-08-05T01:13:12.756Z,0
2022-08-05T01:14:27.259Z,0
2022-08-05T01:14:51.859Z,0
2022-08-05T01:16:00.154Z,0
2022-08-05T01:16:49.943Z,0
2022-08-05T01:18:05.209Z,0
2022-08-05T01:18:59.132Z,0
2022-08-05T01:20:17.953Z,0
2022-08-05T01:20:55.097Z,0
2022-08-05T01:22:02.708Z,0
2022-08-05T01:23:05.823Z,0
2022-08-05T01:24:13.322Z,0
2022-08-05T01:24:55.784Z,0
2022-08-05T01:26:04.755Z,0
2022-08-05T01:27:00.284Z,0
2022-08-05T01:28:13.943Z,0
2022-08-05T01:29:00.570Z,0
2022-08-05T01:30:02.309Z,0
2022-08-05T01:31:14.382Z,0
2022-08-05T01:32:03.623Z,0
2022-08-05T01:33:02.894Z,0
2022-08-05T01:34:13.851Z,0
2022-08-05T01:35:01.705Z,0
2022-08-05T01:36:18.140Z,0
2022-08-05T01:37:06.240Z,0
2022-08-05T01:38:05.330Z,0
2022-08-05T01:39:06.697Z,0
2022-08-05T01:40:04.850Z,0
2022-08-05T01:41:06.808Z,0
2022-08-05T01:42:07.577Z,0
2022-08-05T01:43:09.118Z,0
2022-08-05T01:44:09.752Z,0
2022-08-05T01:45:14.014Z,0
2022-08-05T01:46:57.613Z,0
2022-08-05T01:47:20.641Z,0
2022-08-05T01:48:22.081Z,0
2022-08-05T01:50:07.189Z,0
2022-08-05T01:51:11.894Z,0
2022-08-05T01:52:12.318Z,0
2022-08-05T01:53:01.454Z,0
2022-08-05T01:54:15.348Z,0
2022-08-05T01:55:05.735Z,0
2022-08-05T01:56:00.313Z,0
2022-08-05T01:58:58.026Z,0
2022-08-05T01:59:19.636Z,0
2022-08-05T02:00:30.190Z,0
2022-08-05T02:01:28.723Z,0
2022-08-05T02:02:33.299Z,0
2022-08-05T02:03:45.907Z,0
2022-08-05T02:04:26.859Z,0
2022-08-05T02:05:34.506Z,0
2022-08-05T02:06:58.714Z,0
2022-08-05T02:07:42.974Z,0
2022-08-05T02:09:11.153Z,0
2022-08-05T02:09:33.741Z,0
2022-08-05T02:10:39.130Z,0
2022-08-05T02:11:52.203Z,0
2022-08-05T02:12:45.718Z,0
2022-08-05T02:14:05.024Z,0
2022-08-05T02:14:43.327Z,0
2022-08-05T02:15:55.327Z,0
2022-08-05T02:16:45.006Z,0
2022-08-05T02:18:53.524Z,0
2022-08-05T02:19:12.358Z,0
2022-08-05T02:20:11.725Z,0
2022-08-05T02:21:26.150Z,0
2022-08-05T02:22:17.589Z,0
2022-08-05T02:23:14.892Z,0
2022-08-05T02:24:17.796Z,0
2022-08-05T02:25:18.204Z,0
2022-08-05T02:26:17.317Z,0
2022-08-05T02:27:21.584Z,0
2022-08-05T02:28:37.921Z,0
2022-08-05T02:30:09.437Z,0
2022-08-05T02:30:26.754Z,0
2022-08-05T02:31:34.746Z,0
2022-08-05T02:32:45.423Z,0
2022-08-05T02:33:50.266Z,0
2022-08-05T02:34:39.943Z,0
2022-08-05T02:36:01.514Z,0
2022-08-05T02:36:42.868Z,0
2022-08-05T02:37:43.100Z,0
2022-08-05T02:38:52.998Z,0
2022-08-05T02:39:38.150Z,0
2022-08-05T02:40:39.152Z,0
2022-08-05T02:42:22.546Z,0
2022-08-05T02:42:58.092Z,0
2022-08-05T02:44:24.931Z,0
2022-08-05T02:44:47.458Z,0
2022-08-05T02:46:25.199Z,0
2022-08-05T02:47:11.836Z,0
2022-08-05T02:48:34.238Z,0
2022-08-05T02:48:57.516Z,0
2022-08-05T02:49:55.571Z,0
2022-08-05T02:50:55.280Z,0
2022-08-05T02:52:35.410Z,0
2022-08-05T02:52:52.629Z,0
2022-08-05T02:54:09.624Z,0
2022-08-05T02:55:08.595Z,0
2022-08-05T02:56:15.856Z,0
2022-08-05T02:57:02.506Z,0
2022-08-05T02:58:32.797Z,0
2022-08-05T02:59:03.979Z,0
2022-08-05T03:00:07.487Z,0
2022-08-05T03:01:02.803Z,0
2022-08-05T03:02:03.947Z,0
2022-08-05T03:03:01.856Z,0
2022-08-05T03:04:28.619Z,0
2022-08-05T03:05:04.714Z,0
2022-08-05T03:07:48.554Z,0
2022-08-05T03:08:37.853Z,0
2022-08-05T03:09:56.891Z,0
2022-08-05T03:10:27.149Z,0
2022-08-05T03:12:13.934Z,0
2022-08-05T03:12:34.539Z,0
2022-08-05T03:14:18.414Z,0
2022-08-05T03:14:39.013Z,0
2022-08-05T03:15:39.288Z,0
2022-08-05T03:16:40.975Z,0
2022-08-05T03:17:47.229Z,0
2022-08-05T03:18:57.556Z,0
2022-08-05T03:19:56.419Z,0
2022-08-05T03:20:44.526Z,0
2022-08-05T03:22:00.654Z,0
2022-08-05T03:23:03.262Z,0
2022-08-05T03:23:45.590Z,0
2022-08-05T03:24:52.352Z,0
2022-08-05T03:26:43.649Z,0
2022-08-05T03:27:06.614Z,0
2022-08-05T03:28:19.678Z,0
2022-08-05T03:29:12.277Z,0
2022-08-05T03:30:35.677Z,0
2022-08-05T03:31:11.813Z,0
2022-08-05T03:32:21.828Z,0
2022-08-05T03:33:13.060Z,0
2022-08-05T03:34:16.157Z,0
2022-08-05T03:35:16.618Z,0
2022-08-05T03:36:35.523Z,0
2022-08-05T03:37:15.836Z,0
2022-08-05T03:38:16.325Z,0
2022-08-05T03:39:37.899Z,0
2022-08-05T03:40:37.424Z,0
2022-08-05T03:41:33.069Z,0
2022-08-05T03:42:21.181Z,0
2022-08-05T03:44:34.154Z,0
2022-08-05T03:44:53.053Z,0
2022-08-05T03:46:43.679Z,0
2022-08-05T03:47:41.238Z,0
2022-08-05T03:49:09.173Z,0
2022-08-05T03:50:02.748Z,0
2022-08-05T03:50:36.906Z,0
2022-08-05T03:56:46.711Z,0
2022-08-05T03:57:59.565Z,0
2022-08-05T03:58:41.065Z,0
2022-08-05T04:00:07.167Z,0
2022-08-05T04:00:37.944Z,0
2022-08-05T04:01:42.886Z,0
2022-08-05T04:03:14.804Z,0
2022-08-05T04:04:16.763Z,0
2022-08-05T04:04:44.867Z,0
2022-08-05T04:05:53.252Z,0
2022-08-05T04:06:53.199Z,0
2022-08-05T04:08:30.321Z,0
2022-08-05T04:08:59.394Z,0
2022-08-05T04:10:08.434Z,0
2022-08-05T04:10:55.698Z,0
2022-08-05T04:12:29.227Z,0
2022-08-05T04:12:55.215Z,0
2022-08-05T04:14:12.040Z,0
2022-08-05T04:14:57.549Z,0
2022-08-05T04:16:32.383Z,0
2022-08-05T04:16:58.745Z,0
2022-08-05T04:18:17.231Z,0
2022-08-05T04:19:16.009Z,0
2022-08-05T04:20:10.000Z,0
2022-08-05T04:21:01.661Z,0
2022-08-05T04:22:32.284Z,0
2022-08-05T04:23:12.408Z,0
2022-08-05T04:24:34.680Z,0
2022-08-05T04:25:16.254Z,0
2022-08-05T04:26:18.862Z,0
2022-08-05T04:27:08.794Z,0
2022-08-05T04:28:28.461Z,5.63
2022-08-05T04:29:12.667Z,5.63
2022-08-05T04:30:09.354Z,5.63
2022-08-05T04:31:16.095Z,5.63
2022-08-05T04:32:08.499Z,5.63
2022-08-05T04:33:09.550Z,5.63
2022-08-05T04:34:48.773Z,5.63
2022-08-05T04:35:24.735Z,5.63
2022-08-05T04:37:02.982Z,5.63
2022-08-05T04:38:07.049Z,11.25
2022-08-05T04:39:03.153Z,11.25
2022-08-05T04:40:07.595Z,11.25
2022-08-05T04:41:04.056Z,11.25
2022-08-05T04:42:02.049Z,11.25
2022-08-05T04:42:58.597Z,11.25
2022-08-05T04:44:14.895Z,11.25
2022-08-05T04:44:57.952Z,11.25
2022-08-05T04:46:07.040Z,11.25
2022-08-05T04:47:08.726Z,11.25
2022-08-05T04:48:03.212Z,11.25
2022-08-05T04:49:04.262Z,16.88
2022-08-05T04:51:02.142Z,16.88
2022-08-05T04:51:30.288Z,16.88
2022-08-05T04:52:33.421Z,16.88
2022-08-05T04:53:28.043Z,16.88
2022-08-05T04:54:29.478Z,16.88
2022-08-05T04:56:43.893Z,16.88
2022-08-05T04:57:05.214Z,16.88
2022-08-05T04:58:08.296Z,16.88
2022-08-05T04:59:13.892Z,16.88
2022-08-05T05:00:12.966Z,16.88
2022-08-05T05:01:12.443Z,22.5
2022-08-05T05:02:55.035Z,22.5
2022-08-05T05:03:25.740Z,22.5
2022-08-05T05:04:15.608Z,22.5
2022-08-05T05:06:49.097Z,22.5
2022-08-05T05:07:15.851Z,22.5
2022-08-05T05:08:31.806Z,22.5
2022-08-05T05:09:22.315Z,22.5
2022-08-05T05:10:14.971Z,22.5
2022-08-05T05:11:15.182Z,22.5
2022-08-05T05:12:20.177Z,22.5
2022-08-05T05:13:18.819Z,22.5
2022-08-05T05:14:15.986Z,22.5
2022-08-05T05:15:17.434Z,28.13
2022-08-05T05:16:35.904Z,28.13
2022-08-05T05:17:24.451Z,28.13
2022-08-05T05:18:16.580Z,28.13
2022-08-05T05:19:59.142Z,28.13
2022-08-05T05:20:20.289Z,28.13
2022-08-05T05:21:17.471Z,33.75
2022-08-05T05:22:40.652Z,33.75
2022-08-05T05:23:38.913Z,28.13
2022-08-05T05:25:01.853Z,28.13
2022-08-05T05:25:53.311Z,33.75
2022-08-05T05:26:48.412Z,33.75
2022-08-05T05:28:06.700Z,33.75
2022-08-05T05:28:47.949Z,28.13
2022-08-05T05:30:35.990Z,33.75
2022-08-05T05:31:00.789Z,28.13
2022-08-05T05:31:57.986Z,33.75
2022-08-05T05:33:00.302Z,33.75
2022-08-05T05:34:21.252Z,22.5
2022-08-05T05:34:57.877Z,28.13
2022-08-05T05:35:59.208Z,22.5
2022-08-05T05:37:02.437Z,28.13
2022-08-05T05:38:28.349Z,28.13
2022-08-05T05:38:59.426Z,28.13
2022-08-05T05:40:01.996Z,28.13
2022-08-05T05:41:08.461Z,33.75
2022-08-05T05:42:12.337Z,33.75
2022-08-05T05:43:04.052Z,39.38
2022-08-05T05:44:53.608Z,39.38
2022-08-05T05:45:25.567Z,33.75
2022-08-05T05:46:28.886Z,28.13
2022-08-05T05:48:16.047Z,28.13
2022-08-05T05:48:40.039Z,33.75
2022-08-05T05:49:39.070Z,33.75
2022-08-05T05:50:41.390Z,28.13
2022-08-05T05:51:55.792Z,39.38
2022-08-05T05:52:57.477Z,45
2022-08-05T05:54:16.959Z,39.38
2022-08-05T05:55:07.557Z,45
2022-08-05T05:56:25.909Z,45
2022-08-05T05:56:52.880Z,45
2022-08-05T05:58:09.519Z,45
2022-08-05T05:58:57.724Z,50.63
2022-08-05T05:59:59.552Z,50.63
2022-08-05T06:01:02.681Z,56.25
2022-08-05T06:02:09.444Z,56.25
2022-08-05T06:02:59.651Z,61.88
2022-08-05T06:04:27.484Z,56.25
2022-08-05T06:05:21.589Z,61.88
2022-08-05T06:06:12.629Z,61.88
2022-08-05T06:07:07.128Z,61.88
2022-08-05T06:08:37.756Z,61.88
2022-08-05T06:09:05.627Z,61.88
2022-08-05T06:10:23.818Z,61.88
2022-08-05T06:11:11.944Z,61.88
2022-08-05T06:12:27.113Z,61.88
2022-08-05T06:13:15.411Z,61.88
2022-08-05T06:14:17.415Z,67.5
2022-08-05T06:16:37.606Z,61.88
2022-08-05T06:16:57.211Z,67.5
2022-08-05T06:18:08.848Z,73.13
2022-08-05T06:19:00.152Z,73.13
2022-08-05T06:20:18.749Z,67.5
2022-08-05T06:21:04.769Z,67.5
2022-08-05T06:22:02.388Z,73.13
2022-08-05T06:22:59.293Z,61.88
2022-08-05T06:24:01.591Z,61.88
2022-08-05T06:25:24.799Z,61.88
2022-08-05T06:26:56.775Z,78.75
2022-08-05T06:28:26.837Z,67.5
2022-08-05T06:28:47.805Z,67.5
2022-08-05T06:30:33.466Z,73.13
2022-08-05T06:30:54.277Z,78.75
2022-08-05T06:31:55.990Z,78.75
2022-08-05T06:32:57.666Z,67.5
2022-08-05T06:34:33.223Z,84.38
2022-08-05T06:36:37.319Z,90
2022-08-05T06:38:08.275Z,90
2022-08-05T06:38:52.367Z,90
2022-08-05T06:39:38.021Z,84.38
2022-08-05T06:40:41.984Z,90
2022-08-05T06:41:40.591Z,90
2022-08-05T06:42:30.821Z,90
2022-08-05T06:44:17.032Z,90
2022-08-05T06:44:38.551Z,90
2022-08-05T06:46:18.171Z,95.63
2022-08-05T06:48:12.037Z,95.63
2022-08-05T06:49:21.101Z,95.63
2022-08-05T06:50:29.050Z,61.88
2022-08-05T06:51:36.640Z,73.13
2022-08-05T06:52:42.798Z,61.88
2022-08-05T06:53:44.766Z,78.75
2022-08-05T06:54:31.387Z,101.25
2022-08-05T06:55:23.962Z,61.88
2022-08-05T06:57:13.991Z,78.75
2022-08-05T06:58:51.850Z,67.5
2022-08-05T07:00:03.684Z,67.5
2022-08-05T07:00:46.748Z,61.88
2022-08-05T07:01:58.590Z,67.5
2022-08-05T07:02:46.948Z,90
2022-08-05T07:03:49.936Z,73.13
2022-08-05T07:04:47.478Z,95.63
2022-08-05T07:05:57.119Z,101.25
2022-08-05T07:06:46.325Z,73.13
2022-08-05T07:07:59.728Z,129.38
2022-08-05T07:08:51.729Z,123.75
2022-08-05T07:10:09.028Z,73.13
2022-08-05T07:11:07.350Z,50.63
2022-08-05T07:12:05.810Z,213.75
2022-08-05T07:13:01.931Z,174.38
2022-08-05T07:14:35.686Z,101.25
2022-08-05T07:14:59.210Z,118.13
2022-08-05T07:18:27.408Z,112.5
2022-08-05T07:18:56.981Z,123.75
2022-08-05T07:20:50.303Z,129.38
2022-08-05T07:21:10.846Z,123.75
2022-08-05T07:22:21.023Z,118.13
2022-08-05T07:23:49.263Z,123.75
2022-08-05T07:24:35.136Z,123.75
2022-08-05T07:26:07.718Z,123.75
2022-08-05T07:26:36.785Z,123.75
2022-08-05T07:28:05.856Z,135
2022-08-05T07:28:34.109Z,135
2022-08-05T07:30:44.119Z,118.13
2022-08-05T07:31:11.094Z,151.88
2022-08-05T07:32:16.544Z,135
2022-08-05T07:33:15.818Z,101.25
2022-08-05T07:34:28.743Z,95.63
2022-08-05T07:36:32.480Z,90
2022-08-05T07:36:56.433Z,140.63
2022-08-05T07:37:58.722Z,95.63
2022-08-05T07:39:24.526Z,90
2022-08-05T07:41:17.025Z,84.38
2022-08-05T07:42:49.466Z,84.38
2022-08-05T07:43:40.085Z,78.75
2022-08-05T07:44:39.443Z,73.13
2022-08-05T07:46:24.911Z,67.5
2022-08-05T07:46:45.919Z,90
2022-08-05T07:48:01.151Z,61.88
2022-08-05T07:49:19.737Z,56.25
2022-08-05T07:50:06.605Z,50.63
2022-08-05T07:50:53.220Z,50.63
2022-08-05T07:52:06.194Z,50.63
2022-08-05T07:52:46.428Z,50.63
2022-08-05T07:54:09.893Z,50.63
2022-08-05T07:55:00.442Z,50.63
2022-08-05T07:59:04.287Z,73.13
2022-08-05T07:59:31.205Z,73.13
2022-08-05T08:00:29.207Z,78.75
2022-08-05T08:01:35.354Z,84.38
2022-08-05T08:03:21.527Z,95.63
2022-08-05T08:03:56.618Z,95.63
2022-08-05T08:04:58.678Z,101.25
2022-08-05T08:05:55.240Z,129.38
2022-08-05T08:06:46.427Z,95.63
2022-08-05T08:08:19.732Z,67.5
2022-08-05T08:09:10.748Z,67.5
2022-08-05T08:10:10.272Z,67.5
2022-08-05T08:11:16.102Z,73.13
2022-08-05T08:13:03.994Z,84.38
2022-08-05T08:13:42.858Z,95.63
2022-08-05T08:14:30.101Z,106.88
2022-08-05T08:17:01.806Z,180
2022-08-05T08:17:27.774Z,315
2022-08-05T08:18:31.697Z,517.5
2022-08-05T08:21:20.893Z,95.63
2022-08-05T08:22:15.956Z,135
2022-08-05T08:24:06.837Z,129.38
2022-08-05T08:25:03.029Z,73.13
2022-08-05T08:26:13.283Z,67.5
2022-08-05T08:26:46.467Z,61.88
2022-08-05T08:27:58.099Z,112.5
2022-08-05T08:30:30.276Z,118.13
2022-08-05T08:31:04.396Z,118.13
2022-08-05T08:31:54.002Z,73.13
2022-08-05T08:33:02.456Z,90
2022-08-05T08:33:58.438Z,101.25
2022-08-05T08:34:57.775Z,84.38
2022-08-05T08:36:57.828Z,90
2022-08-05T08:37:27.725Z,146.25
2022-08-05T08:38:53.167Z,118.13
2022-08-05T08:39:32.353Z,135
2022-08-05T08:40:23.539Z,101.25
2022-08-05T08:41:51.545Z,106.88
2022-08-05T08:45:40.911Z,129.38
2022-08-05T08:46:34.423Z,146.25
2022-08-05T08:50:32.082Z,95.63
2022-08-05T08:52:19.083Z,84.38
2022-08-05T08:53:18.743Z,84.38
2022-08-05T08:54:11.601Z,90
2022-08-05T08:56:03.242Z,213.75
2022-08-05T08:56:23.434Z,253.13
2022-08-05T08:57:58.220Z,320.63
2022-08-05T08:58:43.770Z,416.25
2022-08-05T08:59:48.927Z,95.63
2022-08-05T09:00:31.727Z,213.75
2022-08-05T09:01:32.586Z,157.5
2022-08-05T09:02:32.090Z,151.88
2022-08-05T09:03:39.061Z,579.38
2022-08-05T09:04:35.784Z,585
2022-08-05T09:06:27.929Z,472.5
2022-08-05T09:06:47.305Z,675
2022-08-05T09:08:09.919Z,742.5
2022-08-05T09:08:54.976Z,736.88
2022-08-05T09:09:55.679Z,748.13
2022-08-05T09:10:52.153Z,511.88
2022-08-05T09:12:33.430Z,646.88
2022-08-05T09:12:56.418Z,641.25
2022-08-05T09:15:20.535Z,731.25
2022-08-05T09:15:47.354Z,748.13
2022-08-05T09:16:45.396Z,725.63
2022-08-05T09:18:04.767Z,675
2022-08-05T09:18:49.295Z,652.5
2022-08-05T09:20:20.778Z,652.5
2022-08-05T09:20:56.310Z,568.13
2022-08-05T09:23:10.310Z,360
2022-08-05T09:23:57.153Z,354.38
2022-08-05T09:24:43.510Z,343.13
2022-08-05T09:26:37.750Z,337.5
2022-08-05T09:28:20.966Z,326.25
2022-08-05T09:28:45.129Z,326.25
2022-08-05T09:30:03.380Z,326.25
2022-08-05T09:30:44.456Z,326.25
2022-08-05T09:33:07.656Z,326.25
2022-08-05T09:33:40.775Z,331.88
2022-08-05T09:34:26.282Z,326.25
2022-08-05T09:35:40.501Z,326.25
2022-08-05T09:37:00.454Z,326.25
2022-08-05T09:38:47.426Z,326.25
2022-08-05T09:40:08.149Z,320.63
2022-08-05T09:40:59.199Z,320.63
2022-08-05T09:42:08.774Z,320.63
2022-08-05T09:42:54.001Z,315
2022-08-05T09:44:00.535Z,320.63
2022-08-05T09:44:57.114Z,320.63
2022-08-05T09:46:33.244Z,320.63
2022-08-05T09:47:15.968Z,331.88
2022-08-05T09:48:12.831Z,331.88
2022-08-05T09:50:13.799Z,320.63
2022-08-05T09:50:57.265Z,320.63
2022-08-05T09:51:48.722Z,331.88
2022-08-05T09:52:52.878Z,326.25
2022-08-05T09:54:11.976Z,326.25
2022-08-05T09:54:51.978Z,320.63
2022-08-05T09:56:24.650Z,326.25
2022-08-05T09:56:41.303Z,326.25
2022-08-05T09:57:54.518Z,326.25
2022-08-05T09:58:47.440Z,326.25
2022-08-05T09:59:48.173Z,326.25
2022-08-05T10:00:45.729Z,331.88
2022-08-05T10:02:03.665Z,326.25
2022-08-05T10:02:45.970Z,320.63
2022-08-05T10:04:28.698Z,320.63
2022-08-05T10:04:50.886Z,326.25
2022-08-05T10:05:53.422Z,315
2022-08-05T10:07:14.237Z,315
2022-08-05T10:09:01.008Z,315
2022-08-05T10:09:50.844Z,315
2022-08-05T10:11:08.047Z,315
2022-08-05T10:12:35.675Z,315
2022-08-05T10:13:09.780Z,315
2022-08-05T10:14:16.498Z,315
2022-08-05T10:15:13.874Z,315
2022-08-05T10:16:12.599Z,315
2022-08-05T10:17:37.061Z,315
2022-08-05T10:18:13.645Z,315
2022-08-05T10:19:19.012Z,315
2022-08-05T10:20:30.912Z,320.63
2022-08-05T10:21:40.962Z,315
2022-08-05T10:23:03.618Z,309.38
2022-08-05T10:24:16.552Z,309.38
2022-08-05T10:24:45.921Z,309.38
2022-08-05T10:25:36.736Z,309.38
2022-08-05T10:27:00.196Z,315
2022-08-05T10:28:42.209Z,309.38
2022-08-05T10:29:02.032Z,315
2022-08-05T10:33:28.747Z,320.63
2022-08-05T10:34:19.737Z,320.63
2022-08-05T10:35:20.937Z,331.88
2022-08-05T10:36:23.359Z,343.13
2022-08-05T10:37:20.089Z,343.13
2022-08-05T10:38:26.208Z,348.75
2022-08-05T10:40:33.395Z,376.88
2022-08-05T10:40:57.960Z,360
2022-08-05T10:42:06.607Z,360
2022-08-05T10:42:54.973Z,360
2022-08-05T10:43:53.806Z,360
2022-08-05T10:44:54.448Z,360
2022-08-05T10:46:11.906Z,360
2022-08-05T10:46:59.373Z,360
2022-08-05T10:49:09.565Z,365.63
2022-08-05T10:50:20.904Z,360
2022-08-05T10:50:57.557Z,360
2022-08-05T10:52:22.611Z,365.63
2022-08-05T10:53:09.619Z,371.25
2022-08-05T10:54:06.064Z,371.25
2022-08-05T10:55:09.390Z,382.5
2022-08-05T10:56:43.084Z,382.5
2022-08-05T10:57:51.327Z,382.5
2022-08-05T11:00:01.403Z,388.13
2022-08-05T11:00:35.037Z,388.13
2022-08-05T11:02:14.361Z,393.75
2022-08-05T11:03:24.031Z,393.75
2022-08-05T11:03:53.877Z,393.75
2022-08-05T11:04:57.157Z,393.75
2022-08-05T11:06:14.885Z,399.38
2022-08-05T11:06:57.062Z,399.38
2022-08-05T11:08:56.623Z,399.38
2022-08-05T11:10:20.646Z,399.38
2022-08-05T11:11:12.031Z,393.75
2022-08-05T11:12:04.264Z,393.75
2022-08-05T11:12:55.371Z,388.13
2022-08-05T11:14:06.675Z,382.5
2022-08-05T11:16:07.044Z,371.25
2022-08-05T11:16:56.270Z,376.88
2022-08-05T11:18:17.520Z,371.25
2022-08-05T11:18:43.576Z,376.88
2022-08-05T11:20:44.647Z,129.38
2022-08-05T11:22:03.073Z,146.25
2022-08-05T11:22:42.241Z,180
2022-08-05T11:24:50.611Z,315
2022-08-05T11:26:33.726Z,281.25
2022-08-05T11:26:55.023Z,360
2022-08-05T11:28:17.016Z,354.38
2022-08-05T11:28:52.359Z,354.38
2022-08-05T11:29:53.342Z,360
2022-08-05T11:31:06.348Z,309.38
2022-08-05T11:32:17.894Z,337.5
2022-08-05T11:33:51.551Z,343.13
2022-08-05T11:34:34.021Z,354.38
2022-08-05T11:35:38.315Z,247.5
2022-08-05T11:36:52.576Z,331.88
2022-08-05T11:39:03.378Z,292.5
2022-08-05T11:39:20.988Z,281.25
2022-08-05T11:40:31.202Z,275.63
2022-08-05T11:42:23.847Z,264.38
2022-08-05T11:42:51.886Z,270
2022-08-05T11:45:05.219Z,258.75
2022-08-05T11:47:18.615Z,264.38
2022-08-05T11:48:08.796Z,219.38
2022-08-05T11:48:45.732Z,180
2022-08-05T11:49:49.528Z,118.13
2022-08-05T11:50:43.123Z,61.88
2022-08-05T11:52:08.350Z,50.63
2022-08-05T11:52:51.193Z,50.63
2022-08-05T11:53:53.615Z,56.25
2022-08-05T11:55:07.022Z,56.25
2022-08-05T11:55:58.838Z,50.63
2022-08-05T11:57:07.884Z,50.63
2022-08-05T11:58:33.598Z,45
2022-08-05T11:59:04.278Z,45
2022-08-05T12:00:07.905Z,39.38
2022-08-05T12:01:08.416Z,39.38
2022-08-05T12:02:04.123Z,33.75
2022-08-05T12:03:02.157Z,33.75
2022-08-05T12:04:11.795Z,28.13
2022-08-05T12:05:39.746Z,28.13
2022-08-05T12:06:31.528Z,28.13
2022-08-05T12:08:23.438Z,28.13
2022-08-05T12:08:55.053Z,28.13
2022-08-05T12:10:19.601Z,28.13
2022-08-05T12:11:05.748Z,28.13
2022-08-05T12:11:58.181Z,22.5
2022-08-05T12:13:14.022Z,22.5
2022-08-05T12:14:15.364Z,22.5
2022-08-05T12:14:48.408Z,22.5
2022-08-05T12:16:01.266Z,22.5
2022-08-05T12:16:57.550Z,22.5
2022-08-05T12:18:32.932Z,22.5
2022-08-05T12:19:08.282Z,22.5
2022-08-05T12:21:15.134Z,22.5
2022-08-05T12:22:17.929Z,22.5
2022-08-05T12:23:13.534Z,22.5
2022-08-05T12:24:17.666Z,22.5
2022-08-05T12:25:14.153Z,22.5
2022-08-05T12:26:14.829Z,22.5
2022-08-05T12:27:58.689Z,22.5
2022-08-05T12:28:36.645Z,22.5
2022-08-05T12:29:28.539Z,22.5
2022-08-05T12:30:34.533Z,22.5
2022-08-05T12:32:01.918Z,22.5
2022-08-05T12:32:31.572Z,22.5
2022-08-05T12:33:48.731Z,28.13
2022-08-05T12:34:35.675Z,28.13
2022-08-05T12:35:53.473Z,28.13
2022-08-05T12:36:30.669Z,28.13
2022-08-05T12:37:35.496Z,28.13
2022-08-05T12:38:42.757Z,28.13
2022-08-05T12:39:28.224Z,33.75
2022-08-05T12:40:48.724Z,33.75
2022-08-05T12:41:43.745Z,33.75
2022-08-05T12:42:32.123Z,33.75
2022-08-05T12:43:53.194Z,33.75
2022-08-05T12:44:48.255Z,33.75
2022-08-05T12:45:55.410Z,33.75
2022-08-05T12:46:45.573Z,33.75
2022-08-05T12:47:36.642Z,33.75
2022-08-05T12:48:51.001Z,33.75
2022-08-05T12:50:19.736Z,33.75
2022-08-05T12:50:41.440Z,33.75
2022-08-05T12:52:47.895Z,33.75
2022-08-05T12:53:08.296Z,33.75
2022-08-05T12:54:23.184Z,33.75
2022-08-05T12:55:07.330Z,33.75
2022-08-05T12:56:07.514Z,28.13
2022-08-05T12:57:09.773Z,28.13
2022-08-05T13:02:32.379Z,28.13
2022-08-05T13:03:39.196Z,28.13
2022-08-05T13:04:40.439Z,28.13
2022-08-05T13:05:42.717Z,28.13
2022-08-05T13:06:32.863Z,28.13
2022-08-05T13:08:13.865Z,28.13
2022-08-05T13:08:38.245Z,28.13
2022-08-05T13:09:47.904Z,28.13
2022-08-05T13:10:50.420Z,28.13
2022-08-05T13:12:33.795Z,28.13
2022-08-05T13:14:11.570Z,33.75
2022-08-05T13:15:56.495Z,45
2022-08-05T13:16:25.053Z,45
2022-08-05T13:17:20.371Z,45
2022-08-05T13:18:25.479Z,45
2022-08-05T13:19:21.474Z,45
2022-08-05T13:20:31.762Z,50.63
2022-08-05T13:21:23.557Z,50.63
2022-08-05T13:22:35.258Z,50.63
2022-08-05T13:23:28.449Z,56.25
2022-08-05T13:25:18.648Z,61.88
2022-08-05T13:26:21.830Z,56.25
2022-08-05T13:27:44.230Z,56.25
2022-08-05T13:28:23.614Z,50.63
2022-08-05T13:30:39.006Z,50.63
2022-08-05T13:31:03.463Z,50.63
2022-08-05T13:32:37.645Z,50.63
2022-08-05T13:33:14.198Z,50.63
2022-08-05T13:34:43.359Z,67.5
2022-08-05T13:35:00.301Z,67.5
2022-08-05T13:36:15.846Z,67.5
2022-08-05T13:37:07.092Z,73.13
2022-08-05T13:38:36.152Z,67.5
2022-08-05T13:40:27.557Z,78.75
2022-08-05T13:41:08.993Z,84.38
2022-08-05T13:41:54.873Z,118.13
2022-08-05T13:43:00.989Z,78.75
2022-08-05T13:44:07.603Z,84.38
2022-08-05T13:45:04.062Z,84.38
2022-08-05T13:46:02.243Z,84.38
2022-08-05T13:49:11.486Z,84.38
2022-08-05T13:50:04.317Z,73.13
2022-08-05T13:51:05.316Z,73.13
2022-08-05T13:52:05.518Z,73.13
2022-08-05T13:53:08.973Z,67.5
2022-08-05T13:54:20.939Z,61.88
2022-08-05T13:55:41.316Z,61.88
2022-08-05T13:56:30.726Z,61.88
2022-08-05T13:57:11.678Z,61.88
2022-08-05T13:58:08.198Z,67.5
2022-08-05T13:59:32.260Z,73.13
2022-08-05T14:00:18.224Z,73.13
2022-08-05T14:01:17.963Z,73.13
2022-08-05T14:02:31.816Z,73.13
2022-08-05T14:03:20.346Z,73.13
2022-08-05T14:04:18.676Z,73.13
2022-08-05T14:06:25.559Z,73.13
2022-08-05T14:06:47.659Z,78.75
2022-08-05T14:08:45.093Z,84.38
2022-08-05T14:09:08.295Z,90
2022-08-05T14:10:03.444Z,101.25
2022-08-05T14:12:00.587Z,213.75
2022-08-05T14:13:13.153Z,78.75
2022-08-05T14:14:23.405Z,78.75
2022-08-05T14:16:24.422Z,67.5
2022-08-05T14:16:50.097Z,61.88
2022-08-05T14:17:45.486Z,123.75
2022-08-05T14:18:43.546Z,56.25
2022-08-05T14:20:13.171Z,56.25
2022-08-05T14:20:47.036Z,61.88
2022-08-05T14:22:35.644Z,157.5
2022-08-05T14:23:01.484Z,84.38
2022-08-05T14:25:00.944Z,180
2022-08-05T14:26:35.935Z,61.88
2022-08-05T14:27:33.826Z,67.5
2022-08-05T14:28:04.115Z,73.13
2022-08-05T14:29:21.697Z,129.38
2022-08-05T14:30:04.587Z,61.88
2022-08-05T14:31:04.341Z,140.63
2022-08-05T14:32:44.239Z,61.88
2022-08-05T14:33:03.214Z,61.88
2022-08-05T14:34:29.047Z,56.25
2022-08-05T14:35:36.372Z,56.25
2022-08-05T14:36:27.070Z,123.75
2022-08-05T14:37:42.319Z,129.38
2022-08-05T14:38:46.899Z,90
2022-08-05T14:39:48.436Z,140.63
2022-08-05T14:40:30.036Z,140.63
2022-08-05T14:41:29.668Z,135
2022-08-05T14:42:38.329Z,129.38
2022-08-05T14:44:09.879Z,129.38
2022-08-05T14:45:14.412Z,118.13
2022-08-05T14:46:13.097Z,118.13
2022-08-05T14:47:15.068Z,112.5
2022-08-05T14:48:45.189Z,106.88
2022-08-05T14:49:19.225Z,106.88
2022-08-05T14:50:30.882Z,101.25
2022-08-05T14:51:16.660Z,101.25
2022-08-05T14:52:56.997Z,101.25
2022-08-05T14:53:19.150Z,101.25
2022-08-05T14:55:06.669Z,95.63
2022-08-05T14:56:03.215Z,95.63
2022-08-05T14:57:13.653Z,95.63
2022-08-05T14:58:24.899Z,95.63
2022-08-05T14:59:11.072Z,95.63
2022-08-05T15:00:04.301Z,95.63
2022-08-05T15:01:54.075Z,95.63
2022-08-05T15:02:35.789Z,50.63
2022-08-05T15:03:20.412Z,45
2022-08-05T15:04:12.714Z,45